Time;durP1;ratioP1;P1;durP2;ratioP2;P2;SDS_P1;SDS_P2;PMS_P1;PMS_P2;Temp;Humidity;BMP_temperature;BMP_pressure;BME280_temperature;BME280_humidity;BME280_pressure;Samples;Min_cycle;Max_cycle;Signal;HPM_P1;HPM_P2
2022/09/14 00:00:13;;;;;;;960.28;896.38;;;;;;;17.14;67.90;100298.69;690052;28;21549;-64
2022/09/14 00:00:40;;;;;;;970.08;905.78;;;;;;;17.13;68.17;100297.00;684300;28;89475;-64
2022/09/14 00:01:06;;;;;;;949.20;885.67;;;;;;;17.13;68.19;100289.66;683299;28;137906;-64
2022/09/14 00:01:30;;;;;;;933.42;870.33;;;;;;;17.14;68.20;100295.97;683038;28;138660;-65
2022/09/14 00:01:53;;;;;;;928.17;865.33;;;;;;;17.13;68.04;100292.38;684297;28;86477;-64
2022/09/14 00:02:14;;;;;;;922.60;859.85;;;;;;;17.12;68.03;100293.47;685303;28;69273;-64
2022/09/14 00:02:35;;;;;;;926.08;863.30;;;;;;;17.10;68.18;100296.41;689215;28;24411;-64
2022/09/14 00:02:56;;;;;;;911.22;848.95;;;;;;;17.11;68.17;100294.50;690125;28;21558;-64
2022/09/14 00:03:18;;;;;;;908.30;845.97;;;;;;;17.11;68.25;100295.38;688938;28;22391;-64
2022/09/14 00:03:40;;;;;;;926.97;864.17;;;;;;;17.13;68.16;100292.38;689336;28;44039;-64
2022/09/14 00:04:04;;;;;;;931.55;868.60;;;;;;;17.13;68.32;100289.66;689350;28;46404;-64
2022/09/14 00:04:25;;;;;;;936.88;873.72;;;;;;;17.14;68.23;100291.31;687609;28;91996;-65
2022/09/14 00:04:47;;;;;;;941.75;878.42;;;;;;;17.16;68.45;100294.66;690091;28;22388;-65
2022/09/14 00:05:09;;;;;;;939.22;876.03;;;;;;;17.16;68.27;100288.38;688840;28;46425;-65
2022/09/14 00:05:33;;;;;;;937.67;874.47;;;;;;;17.14;68.19;100293.22;689148;28;45251;-65
2022/09/14 00:05:54;;;;;;;945.67;882.30;;;;;;;17.15;68.14;100294.88;687727;28;92289;-65
2022/09/14 00:06:15;;;;;;;932.17;869.22;;;;;;;17.16;68.12;100296.56;690099;28;21273;-65
2022/09/14 00:06:38;;;;;;;931.47;868.53;;;;;;;17.15;68.18;100284.81;686816;28;23481;-64
2022/09/14 00:07:00;;;;;;;936.78;873.35;;;;;;;17.14;68.27;100294.06;684029;28;67487;-65
2022/09/14 00:07:21;;;;;;;935.40;871.90;;;;;;;17.15;68.03;100294.88;685820;28;46281;-65
2022/09/14 00:07:42;;;;;;;927.53;864.50;;;;;;;17.13;68.26;100289.66;686975;28;22294;-65
2022/09/14 00:08:03;;;;;;;933.70;870.67;;;;;;;17.11;68.17;100289.06;687232;28;21568;-64
2022/09/14 00:08:26;;;;;;;931.72;868.72;;;;;;;17.14;68.28;100295.97;687027;28;41821;-64
2022/09/14 00:08:49;;;;;;;940.30;876.97;;;;;;;17.15;68.18;100294.88;689258;28;46399;-65
2022/09/14 00:09:14;;;;;;;941.20;877.80;;;;;;;17.14;68.35;100291.31;688446;28;69320;-65
2022/09/14 00:09:35;;;;;;;944.75;881.20;;;;;;;17.15;68.13;100284.81;686720;28;115169;-65
2022/09/14 00:09:57;;;;;;;931.90;868.85;;;;;;;17.16;68.18;100285.63;690058;28;23449;-65
2022/09/14 00:10:19;;;;;;;931.95;869.03;;;;;;;17.16;68.16;100285.63;689144;28;45273;-65
2022/09/14 00:10:40;;;;;;;941.67;878.55;;;;;;;17.16;68.39;100286.47;689279;28;46315;-64
2022/09/14 00:11:04;;;;;;;954.25;890.72;;;;;;;17.17;68.33;100284.59;689281;28;44155;-65
2022/09/14 00:11:27;;;;;;;954.08;890.47;;;;;;;17.18;68.21;100289.81;688319;28;70313;-65
2022/09/14 00:11:49;;;;;;;952.10;888.45;;;;;;;17.19;68.16;100286.00;687601;28;69278;-65
2022/09/14 00:12:11;;;;;;;926.10;863.25;;;;;;;17.20;68.15;100282.22;689269;28;46374;-64
2022/09/14 00:12:32;;;;;;;933.13;869.88;;;;;;;17.20;68.03;100287.66;690587;28;1311;-65
2022/09/14 00:12:53;;;;;;;937.70;874.38;;;;;;;17.21;68.00;100283.88;690100;28;22398;-65
2022/09/14 00:13:16;;;;;;;922.92;860.10;;;;;;;17.22;68.06;100281.97;688988;28;44144;-64
2022/09/14 00:13:38;;;;;;;944.55;881.00;;;;;;;17.22;68.00;100277.34;685965;28;44257;-65
2022/09/14 00:14:01;;;;;;;964.28;900.17;;;;;;;17.21;67.88;100281.16;685572;28;69264;-65
2022/09/14 00:14:22;;;;;;;965.22;901.13;;;;;;;17.22;67.89;100285.53;686194;28;45293;-65
2022/09/14 00:14:45;;;;;;;978.70;914.10;;;;;;;17.23;67.99;100286.38;687167;28;22426;-65
2022/09/14 00:15:07;;;;;;;975.30;910.90;;;;;;;17.22;67.91;100282.81;685633;28;69097;-65
2022/09/14 00:15:28;;;;;;;979.13;914.50;;;;;;;17.21;67.85;100281.16;687429;28;45237;-65
2022/09/14 00:15:50;;;;;;;971.17;906.92;;;;;;;17.21;67.76;100283.88;689861;28;21581;-65
2022/09/14 00:16:14;;;;;;;967.25;903.03;;;;;;;17.21;67.79;100283.88;687453;28;69415;-65
2022/09/14 00:16:41;;;;;;;974.85;910.40;;;;;;;17.20;68.00;100282.22;688508;28;67248;-65
2022/09/14 00:17:03;;;;;;;972.47;907.78;;;;;;;17.21;67.81;100283.03;656666;28;160836;-65
2022/09/14 00:17:24;;;;;;;979.33;914.42;;;;;;;17.20;67.79;100281.41;686134;28;45423;-64
2022/09/14 00:17:45;;;;;;;975.80;911.30;;;;;;;17.20;68.12;100281.41;687062;28;22401;-65
2022/09/14 00:18:09;;;;;;;972.20;907.80;;;;;;;17.19;67.82;100286.00;686110;28;44481;-65
2022/09/14 00:18:32;;;;;;;974.03;909.40;;;;;;;17.19;67.81;100283.28;684441;28;92364;-65
2022/09/14 00:18:55;;;;;;;946.92;883.38;;;;;;;17.18;67.85;100284.34;686332;28;67470;-65
2022/09/14 00:19:18;;;;;;;955.20;891.40;;;;;;;17.19;67.90;100287.91;688311;28;69210;-65
2022/09/14 00:19:40;;;;;;;965.65;901.55;;;;;;;17.20;68.16;100284.13;688434;28;70067;-65
2022/09/14 00:20:01;;;;;;;960.88;896.97;;;;;;;17.20;68.04;100275.94;689123;28;46257;-65
2022/09/14 00:20:23;;;;;;;962.33;898.33;;;;;;;17.18;67.94;100276.16;689212;28;45260;-65
2022/09/14 00:20:44;;;;;;;973.20;908.85;;;;;;;17.20;67.86;100275.94;690054;28;22357;-65
2022/09/14 00:21:07;;;;;;;965.30;901.20;;;;;;;17.19;67.94;100274.25;690052;28;22424;-65
2022/09/14 00:21:28;;;;;;;958.95;895.05;;;;;;;17.21;68.02;100278.44;688428;28;67456;-65
2022/09/14 00:21:51;;;;;;;959.53;895.67;;;;;;;17.21;67.87;100272.97;669241;28;46324;-65
2022/09/14 00:22:13;;;;;;;961.72;897.70;;;;;;;17.21;68.18;100281.16;684943;28;70357;-64
2022/09/14 00:22:34;;;;;;;954.25;890.55;;;;;;;17.22;67.83;100271.06;687185;28;23619;-65
2022/09/14 00:22:55;;;;;;;949.90;886.45;;;;;;;17.22;67.90;100281.97;687213;28;23418;-65
2022/09/14 00:23:16;;;;;;;948.20;884.75;;;;;;;17.21;67.69;100277.56;686350;28;46320;-65
2022/09/14 00:23:40;;;;;;;945.47;882.05;;;;;;;17.21;67.85;100277.56;687188;28;21509;-65
2022/09/14 00:24:02;;;;;;;938.53;875.33;;;;;;;17.19;67.75;100271.53;686418;28;90733;-64
2022/09/14 00:24:25;;;;;;;940.30;877.03;;;;;;;17.19;67.85;100271.53;689132;28;46283;-64
2022/09/14 00:24:46;;;;;;;946.63;883.13;;;;;;;17.19;67.66;100275.09;688009;28;69189;-64
2022/09/14 00:25:10;;;;;;;948.47;884.97;;;;;;;17.19;67.79;100266.06;690023;28;22411;-64
2022/09/14 00:25:31;;;;;;;941.92;878.45;;;;;;;17.19;67.79;100271.53;688387;28;69292;-64
2022/09/14 00:25:52;;;;;;;941.75;878.45;;;;;;;17.17;67.74;100266.31;689703;28;21523;-64
2022/09/14 00:26:16;;;;;;;936.67;873.55;;;;;;;17.15;67.75;100264.84;689148;28;45173;-64
2022/09/14 00:26:38;;;;;;;942.50;879.17;;;;;;;17.16;67.91;100270.09;686752;28;93071;-64
2022/09/14 00:27:01;;;;;;;974.85;910.20;;;;;;;17.16;67.90;100266.53;660992;28;45302;-64
2022/09/14 00:27:22;;;;;;;956.05;892.00;;;;;;;17.17;68.00;100271.75;684512;28;69231;-64
2022/09/14 00:27:44;;;;;;;945.28;881.78;;;;;;;17.15;67.77;100275.78;684032;28;21539;-64
2022/09/14 00:28:05;;;;;;;946.22;882.78;;;;;;;17.17;67.65;100268.22;681621;29;21413;-64
2022/09/14 00:28:27;;;;;;;933.05;869.88;;;;;;;17.17;67.92;100269.03;681492;29;22453;-64
2022/09/14 00:28:50;;;;;;;928.45;865.55;;;;;;;17.14;68.01;100261.31;680210;29;67469;-63
2022/09/14 00:29:11;;;;;;;930.38;867.42;;;;;;;17.16;67.76;100267.34;682886;28;67847;-64
2022/09/14 00:29:33;;;;;;;924.30;861.40;;;;;;;17.16;67.89;100261.91;686231;28;22397;-64
2022/09/14 00:29:55;;;;;;;941.20;877.90;;;;;;;17.16;67.79;100270.09;690073;28;22172;-64
2022/09/14 00:30:16;;;;;;;949.50;885.80;;;;;;;17.17;68.15;100270.94;689039;28;45231;-64
2022/09/14 00:30:43;;;;;;;950.10;886.47;;;;;;;17.17;68.00;100270.94;688802;28;61587;-64
2022/09/14 00:31:04;;;;;;;949.78;886.25;;;;;;;17.16;68.00;100266.53;689910;28;23490;-64
2022/09/14 00:31:27;;;;;;;942.20;878.80;;;;;;;17.17;67.92;100265.47;689129;28;44380;-64
2022/09/14 00:31:50;;;;;;;936.60;873.35;;;;;;;17.14;67.81;100272.22;687649;28;67484;-64
2022/09/14 00:32:11;;;;;;;937.63;874.38;;;;;;;17.16;67.93;100266.53;689202;28;45259;-64
2022/09/14 00:32:32;;;;;;;926.20;863.28;;;;;;;17.15;68.07;100262.97;689077;28;46327;-63
2022/09/14 00:32:54;;;;;;;928.00;865.20;;;;;;;17.17;68.04;100268.22;690005;28;21539;-64
2022/09/14 00:33:16;;;;;;;938.30;874.95;;;;;;;17.17;68.03;100265.47;688216;28;45100;-64
2022/09/14 00:33:46;;;;;;;925.05;862.13;;;;;;;17.17;68.11;100266.31;688804;28;61596;-64
2022/09/14 00:34:10;;;;;;;933.30;870.25;;;;;;;17.17;67.97;100265.47;687697;28;92055;-64
2022/09/14 00:34:33;;;;;;;941.75;878.35;;;;;;;17.17;67.77;100270.94;684485;28;115064;-64
2022/09/14 00:34:54;;;;;;;950.33;886.75;;;;;;;17.15;67.81;100262.97;685779;28;69424;-67
2022/09/14 00:35:16;;;;;;;934.13;871.08;;;;;;;17.15;67.77;100265.72;684581;28;2089;-64
2022/09/14 00:35:37;;;;;;;939.65;876.30;;;;;;;17.11;67.77;100257.16;683598;28;45332;-64
2022/09/14 00:36:04;;;;;;;945.03;881.55;;;;;;;17.14;67.75;100260.50;683638;28;21523;-64
2022/09/14 00:36:27;;;;;;;953.72;889.97;;;;;;;17.13;68.02;100259.63;680319;28;138265;-64
2022/09/14 00:36:50;;;;;;;946.05;882.50;;;;;;;17.11;67.64;100256.31;681138;28;92501;-64
2022/09/14 00:37:11;;;;;;;955.45;891.35;;;;;;;17.09;67.86;100256.53;683955;28;69416;-64
2022/09/14 00:37:33;;;;;;;950.00;886.10;;;;;;;17.09;67.88;100255.72;687092;28;22386;-64
2022/09/14 00:37:55;;;;;;;951.42;887.75;;;;;;;17.06;67.75;100253.47;686580;28;45259;-64
2022/09/14 00:38:16;;;;;;;964.90;900.88;;;;;;;17.07;67.96;100263.31;687252;28;22341;-64
2022/09/14 00:38:38;;;;;;;958.03;894.13;;;;;;;17.06;68.09;100261.66;687107;28;23532;-64
2022/09/14 00:39:03;;;;;;;961.15;897.15;;;;;;;17.05;67.96;100252.63;686510;28;46309;-64
2022/09/14 00:39:27;;;;;;;976.72;911.83;;;;;;;17.02;67.83;100263.16;684243;28;107211;-65
2022/09/14 00:39:49;;;;;;;972.30;907.80;;;;;;;17.02;67.90;100264.00;682293;28;73001;-64
2022/09/14 00:40:11;;;;;;;972.38;907.75;;;;;;;17.00;68.01;100249.75;684852;28;1312;-65
2022/09/14 00:40:33;;;;;;;974.00;909.60;;;;;;;16.99;68.20;100258.16;680519;29;45696;-64
2022/09/14 00:40:58;;;;;;;971.72;906.83;;;;;;;16.98;68.06;100264.72;679119;29;92096;-64
2022/09/14 00:41:22;;;;;;;977.75;913.08;;;;;;;16.98;68.21;100254.63;680025;29;67463;-64
2022/09/14 00:41:45;;;;;;;979.92;915.22;;;;;;;16.97;68.05;100255.66;680823;28;93189;-65
2022/09/14 00:42:06;;;;;;;978.67;913.95;;;;;;;16.96;68.09;100264.94;683077;28;89372;-64
2022/09/14 00:42:28;;;;;;;975.58;910.95;;;;;;;16.95;68.24;100266.00;685108;28;44003;-64
2022/09/14 00:42:50;;;;;;;981.70;916.97;;;;;;;16.92;68.34;100256.38;686608;28;46427;-64
2022/09/14 00:43:13;;;;;;;954.85;890.92;;;;;;;16.93;68.21;100270.84;687778;28;44381;-64
2022/09/14 00:43:53;;;;;;;956.15;892.17;;;;;;;16.90;68.37;100260.41;688262;28;67465;-65
2022/09/14 00:44:49;;;;;;;952.20;888.50;;;;;;;16.88;68.55;100259.78;685834;28;137590;-65
2022/09/14 00:45:14;;;;;;;977.78;913.20;;;;;;;16.87;68.51;100258.13;677734;28;138226;-64
2022/09/14 00:45:36;;;;;;;974.08;909.60;;;;;;;16.86;68.54;100260.00;686863;28;113044;-64
2022/09/14 00:46:00;;;;;;;972.85;908.55;;;;;;;16.87;68.21;100256.22;690001;28;21533;-65
2022/09/14 00:46:22;;;;;;;978.78;914.22;;;;;;;16.85;68.59;100258.34;686635;28;115154;-64
2022/09/14 00:46:45;;;;;;;981.08;916.35;;;;;;;16.85;68.47;100254.75;688442;28;44987;-64
2022/09/14 00:47:08;;;;;;;980.08;915.00;;;;;;;16.85;68.40;100257.47;686220;28;89112;-64
2022/09/14 00:47:32;;;;;;;976.17;911.47;;;;;;;16.85;68.77;100257.47;688123;28;69132;-64
2022/09/14 00:47:54;;;;;;;976.67;912.03;;;;;;;16.85;68.70;100260.22;683854;28;92325;-64
2022/09/14 00:48:15;;;;;;;961.03;896.78;;;;;;;16.84;68.65;100255.84;682409;28;67518;-64
2022/09/14 00:48:36;;;;;;;930.85;867.72;;;;;;;16.83;68.45;100260.44;684412;28;22472;-64
2022/09/14 00:49:00;;;;;;;953.30;889.58;;;;;;;16.82;68.66;100253.34;684412;28;22375;-63
2022/09/14 00:49:25;;;;;;;957.17;893.15;;;;;;;16.81;68.56;100257.13;681744;28;91927;-64
2022/09/14 00:49:46;;;;;;;959.33;895.33;;;;;;;16.78;68.79;100252.13;682500;28;115909;-64
2022/09/14 00:50:09;;;;;;;972.75;908.42;;;;;;;16.79;68.59;100253.78;688472;28;22406;-64
2022/09/14 00:50:32;;;;;;;968.25;903.85;;;;;;;16.77;68.60;100255.94;688186;28;68381;-64
2022/09/14 00:50:53;;;;;;;957.75;893.70;;;;;;;16.76;68.75;100248.81;688260;28;69507;-64
2022/09/14 00:51:16;;;;;;;953.08;889.30;;;;;;;16.76;68.90;100254.25;689745;28;22412;-64
2022/09/14 00:51:40;;;;;;;951.65;887.85;;;;;;;16.75;68.71;100255.31;688320;28;68304;-64
2022/09/14 00:52:07;;;;;;;943.05;879.63;;;;;;;16.74;68.57;100246.31;685366;28;113636;-64
2022/09/14 00:52:31;;;;;;;938.03;874.60;;;;;;;16.74;68.57;100250.94;685720;28;137797;-64
2022/09/14 00:52:54;;;;;;;920.17;857.45;;;;;;;16.72;68.67;100244.84;687411;28;92199;-64
2022/09/14 00:53:15;;;;;;;920.15;857.35;;;;;;;16.70;68.63;100247.81;687339;28;69657;-64
2022/09/14 00:53:36;;;;;;;922.90;860.03;;;;;;;16.72;68.84;100248.44;689793;28;23421;-64
2022/09/14 00:54:01;;;;;;;911.97;849.58;;;;;;;16.71;68.84;100249.50;689912;28;22381;-64
2022/09/14 00:54:22;;;;;;;927.45;864.50;;;;;;;16.71;68.78;100243.22;687442;28;92016;-64
2022/09/14 00:54:46;;;;;;;943.25;879.72;;;;;;;16.71;68.79;100249.50;689901;28;22398;-64
2022/09/14 00:55:09;;;;;;;938.47;875.25;;;;;;;16.70;68.59;100244.25;687581;28;92166;-64
2022/09/14 00:55:32;;;;;;;925.78;862.88;;;;;;;16.68;68.70;100244.50;689301;28;32542;-64
2022/09/14 00:55:53;;;;;;;926.97;864.00;;;;;;;16.68;68.89;100240.94;688370;28;69467;-64
2022/09/14 00:56:15;;;;;;;923.72;860.92;;;;;;;16.67;68.65;100242.81;689892;28;21550;-64
2022/09/14 00:56:36;;;;;;;924.13;861.30;;;;;;;16.69;69.02;100248.03;689134;28;46457;-64
2022/09/14 00:56:58;;;;;;;925.75;862.63;;;;;;;16.65;68.79;100244.13;687710;28;21498;-64
2022/09/14 00:57:20;;;;;;;948.10;884.10;;;;;;;16.67;68.78;100244.72;688900;28;44377;-64
2022/09/14 00:57:46;;;;;;;945.83;881.90;;;;;;;16.64;68.91;100242.47;688855;28;43727;-64
2022/09/14 00:58:07;;;;;;;947.08;883.25;;;;;;;16.67;68.73;100248.28;685798;28;137934;-65
2022/09/14 00:58:29;;;;;;;946.08;882.25;;;;;;;16.66;68.78;100246.63;689387;28;23274;-64
2022/09/14 00:58:51;;;;;;;949.72;885.78;;;;;;;16.66;68.59;100246.63;688871;28;46248;-65
2022/09/14 00:59:16;;;;;;;951.97;888.17;;;;;;;16.65;68.82;100246.84;688938;28;46383;-64
2022/09/14 00:59:40;;;;;;;946.50;882.75;;;;;;;16.63;68.91;100246.22;686633;28;115531;-64
2022/09/14 01:00:03;;;;;;;948.70;885.00;;;;;;;16.60;68.66;100243.97;687383;28;92151;-65
2022/09/14 01:00:30;;;;;;;949.63;885.88;;;;;;;16.61;68.77;100248.38;688239;28;70293;-66
2022/09/14 01:00:51;;;;;;;950.63;886.83;;;;;;;16.60;68.70;100243.97;685977;28;137842;-64
2022/09/14 01:01:13;;;;;;;936.13;872.90;;;;;;;16.55;68.88;100248.22;689142;28;44385;-64
2022/09/14 01:01:34;;;;;;;952.38;888.65;;;;;;;16.56;68.88;100244.41;689165;28;21515;-64
2022/09/14 01:01:55;;;;;;;952.78;889.08;;;;;;;16.55;68.81;100245.50;688917;28;21532;-64
2022/09/14 01:02:20;;;;;;;955.22;891.42;;;;;;;16.54;68.88;100241.09;687888;28;46343;-64
2022/09/14 01:02:42;;;;;;;954.80;891.10;;;;;;;16.52;68.68;100245.97;686602;28;116153;-64
2022/09/14 01:03:03;;;;;;;958.47;894.80;;;;;;;16.52;68.85;100239.66;689833;28;23454;-64
2022/09/14 01:03:24;;;;;;;974.53;910.05;;;;;;;16.51;69.03;100244.28;689531;28;22390;-64
2022/09/14 01:03:47;;;;;;;978.43;913.83;;;;;;;16.50;68.97;100239.88;687061;28;22457;-64
2022/09/14 01:04:08;;;;;;;960.13;896.13;;;;;;;16.48;69.07;100242.00;685958;28;69342;-64
2022/09/14 01:04:30;;;;;;;961.40;897.38;;;;;;;16.48;68.81;100244.75;688991;28;47514;-64
2022/09/14 01:04:51;;;;;;;971.08;906.65;;;;;;;16.44;69.03;100243.56;689938;28;21525;-64
2022/09/14 01:05:14;;;;;;;965.70;901.60;;;;;;;16.44;68.94;100243.56;688950;28;46332;-64
2022/09/14 01:05:48;;;;;;;956.88;893.00;;;;;;;16.43;68.96;100238.31;689102;28;46694;-64
2022/09/14 01:06:17;;;;;;;955.88;892.00;;;;;;;16.40;68.97;100245.88;685914;28;137911;-64
2022/09/14 01:06:43;;;;;;;964.95;900.67;;;;;;;16.38;69.16;100247.19;685902;28;137816;-64
2022/09/14 01:07:13;;;;;;;964.65;900.08;;;;;;;16.37;69.13;100250.97;683823;28;138797;-64
2022/09/14 01:07:44;;;;;;;962.45;898.17;;;;;;;16.35;69.27;100248.47;685869;28;137761;-64
2022/09/14 01:08:21;;;;;;;972.47;908.00;;;;;;;16.34;69.31;100246.78;681762;28;159060;-64
2022/09/14 01:08:54;;;;;;;987.42;922.45;;;;;;;16.33;69.49;100252.47;682345;28;158947;-64
2022/09/14 01:09:23;;;;;;;978.42;913.63;;;;;;;16.34;69.31;100251.41;682427;28;70806;-64
2022/09/14 01:09:50;;;;;;;987.60;922.60;;;;;;;16.32;69.58;100248.91;679630;28;161505;-64
2022/09/14 01:10:21;;;;;;;979.05;914.38;;;;;;;16.32;69.48;100240.72;683061;28;138085;-64
2022/09/14 01:10:55;;;;;;;989.70;924.58;;;;;;;16.33;69.61;100244.28;683268;28;58859;-64
2022/09/14 01:11:35;;;;;;;986.10;921.10;;;;;;;16.33;69.72;100242.41;685507;28;135880;-64
2022/09/14 01:12:09;;;;;;;991.73;926.37;;;;;;;16.36;69.63;100241.97;683819;28;161449;-64
2022/09/14 01:12:36;;;;;;;991.83;926.58;;;;;;;16.36;69.38;100249.28;685498;28;137498;-64
2022/09/14 01:13:10;;;;;;;957.65;893.58;;;;;;;16.34;69.61;100241.34;686003;28;136313;-64
2022/09/14 01:13:36;;;;;;;965.65;901.20;;;;;;;16.35;69.65;100250.38;685752;28;136562;-64
2022/09/14 01:14:02;;;;;;;977.83;913.22;;;;;;;16.36;69.27;100246.56;685939;28;136477;-64
2022/09/14 01:14:34;;;;;;;987.33;922.25;;;;;;;16.34;69.47;100248.69;685676;28;136790;-64
2022/09/14 01:15:01;;;;;;;980.15;915.33;;;;;;;16.33;69.33;100245.13;685989;28;136359;-64
2022/09/14 01:15:25;;;;;;;977.15;912.50;;;;;;;16.34;69.16;100240.50;685594;28;137521;-64
2022/09/14 01:15:53;;;;;;;973.20;908.60;;;;;;;16.33;69.41;100245.13;686679;28;92255;-64
2022/09/14 01:16:23;;;;;;;988.67;923.47;;;;;;;16.35;69.25;100250.38;685731;28;137956;-64
2022/09/14 01:16:49;;;;;;;980.28;915.38;;;;;;;16.34;69.41;100241.34;685836;28;136143;-64
2022/09/14 01:17:14;;;;;;;988.17;922.92;;;;;;;16.34;69.50;100249.50;684823;28;134703;-64
2022/09/14 01:17:44;;;;;;;989.08;924.00;;;;;;;16.34;69.56;100246.78;685396;28;138154;-64
2022/09/14 01:18:13;;;;;;;978.70;914.13;;;;;;;16.34;69.24;100241.34;685970;28;137579;-64
2022/09/14 01:18:37;;;;;;;967.47;903.15;;;;;;;16.31;69.27;100238.25;685812;28;137790;-64
2022/09/14 01:18:59;;;;;;;976.55;912.08;;;;;;;16.31;69.02;100244.50;688822;28;69343;-64
2022/09/14 01:19:25;;;;;;;981.78;916.97;;;;;;;16.31;69.23;100239.06;688673;28;67465;-64
2022/09/14 01:20:13;;;;;;;976.75;912.22;;;;;;;16.31;69.39;100243.69;686535;28;138114;-64
2022/09/14 01:20:36;;;;;;;982.35;917.45;;;;;;;16.29;69.07;100238.47;683569;28;136912;-64
2022/09/14 01:21:03;;;;;;;986.72;921.78;;;;;;;16.30;69.23;100247.47;688159;28;92104;-64
2022/09/14 01:21:27;;;;;;;989.17;924.03;;;;;;;16.28;69.15;100244.13;684841;28;138916;-64
2022/09/14 01:21:51;;;;;;;983.53;918.58;;;;;;;16.29;69.13;100237.66;671308;28;82051;-64
2022/09/14 01:22:18;;;;;;;979.75;915.00;;;;;;;16.28;69.09;100241.41;685071;28;83843;-64
2022/09/14 01:22:45;;;;;;;980.30;915.55;;;;;;;16.27;69.03;100243.31;683513;28;138665;-64
2022/09/14 01:23:11;;;;;;;961.75;897.65;;;;;;;16.28;69.15;100246.88;683569;28;136351;-64
2022/09/14 01:23:42;;;;;;;973.17;908.67;;;;;;;16.27;69.42;100245.19;684440;28;115142;-64
2022/09/14 01:24:11;;;;;;;971.00;906.53;;;;;;;16.25;69.44;100241.88;684760;28;160493;-64
2022/09/14 01:24:39;;;;;;;973.67;909.03;;;;;;;16.24;69.31;100234.75;686374;28;137463;-64
2022/09/14 01:25:10;;;;;;;986.05;921.08;;;;;;;16.24;69.45;100235.59;684379;28;137395;-64
2022/09/14 01:26:15;;;;;;;968.97;904.55;;;;;;;16.21;69.37;100239.59;684163;28;137661;-64
2022/09/14 01:27:09;;;;;;;976.90;912.13;;;;;;;16.20;69.45;100240.66;674487;29;158906;-64
2022/09/14 01:27:34;;;;;;;958.72;894.60;;;;;;;16.20;69.20;100240.66;673966;29;156084;-64
2022/09/14 01:27:59;;;;;;;970.88;906.30;;;;;;;16.20;69.47;100240.66;684336;28;115083;-64
2022/09/14 01:28:22;;;;;;;968.83;904.42;;;;;;;16.20;69.46;100239.81;684314;28;116049;-64
2022/09/14 01:28:50;;;;;;;971.13;906.53;;;;;;;16.20;69.45;100237.09;685979;28;69447;-64
2022/09/14 01:29:13;;;;;;;963.55;899.40;;;;;;;16.18;69.34;100240.03;683910;28;137712;-64
2022/09/14 01:29:41;;;;;;;973.80;909.22;;;;;;;16.17;69.19;100241.09;687692;28;67603;-64
2022/09/14 01:30:06;;;;;;;973.85;909.35;;;;;;;16.16;69.31;100247.63;686621;28;136280;-64
2022/09/14 01:30:30;;;;;;;974.80;910.30;;;;;;;16.15;69.12;100243.22;687325;28;115297;-64
2022/09/14 01:30:53;;;;;;;975.75;911.15;;;;;;;16.15;69.33;100242.41;687140;28;113575;-64
2022/09/14 01:31:19;;;;;;;979.00;914.22;;;;;;;16.15;69.23;100245.13;689615;28;46341;-64
2022/09/14 01:31:46;;;;;;;980.35;915.38;;;;;;;16.14;69.57;100240.72;684555;28;137694;-64
2022/09/14 01:32:12;;;;;;;969.30;904.90;;;;;;;16.13;69.28;100242.63;682361;28;180689;-64
2022/09/14 01:32:39;;;;;;;974.22;909.67;;;;;;;16.10;69.54;100225.91;685136;28;138738;-64
2022/09/14 01:33:03;;;;;;;973.05;908.53;;;;;;;16.12;69.40;100245.56;685647;28;160957;-64
2022/09/14 01:33:27;;;;;;;978.40;913.70;;;;;;;16.10;69.38;100237.63;687792;28;93036;-64
2022/09/14 01:33:54;;;;;;;964.67;900.45;;;;;;;16.08;69.28;100241.63;684751;28;92326;-64
2022/09/14 01:34:22;;;;;;;973.60;909.10;;;;;;;16.08;69.22;100234.31;683552;28;137863;-64
2022/09/14 01:34:45;;;;;;;972.13;907.83;;;;;;;16.09;69.48;100240.56;680104;28;159711;-64
2022/09/14 01:35:10;;;;;;;978.45;913.92;;;;;;;16.07;69.21;100243.53;683222;28;69522;-64
2022/09/14 01:35:34;;;;;;;975.85;911.28;;;;;;;16.07;69.33;100242.72;680963;28;138932;-64
2022/09/14 01:35:58;;;;;;;978.40;913.72;;;;;;;16.07;69.28;100250.88;685106;28;92320;-64
2022/09/14 01:36:20;;;;;;;975.50;910.90;;;;;;;16.06;69.26;100243.75;685179;28;90701;-64
2022/09/14 01:36:44;;;;;;;973.50;908.90;;;;;;;16.04;69.31;100243.97;688670;28;46303;-64
2022/09/14 01:37:11;;;;;;;985.63;920.40;;;;;;;16.03;69.46;100242.31;661400;28;91953;-64
2022/09/14 01:37:35;;;;;;;975.88;911.17;;;;;;;16.01;69.45;100241.69;686149;28;137694;-64
2022/09/14 01:38:00;;;;;;;970.40;905.95;;;;;;;16.02;69.50;100243.38;687966;28;90322;-64
2022/09/14 01:38:25;;;;;;;970.60;906.10;;;;;;;16.00;69.32;100243.59;686177;28;115826;-64
2022/09/14 01:38:49;;;;;;;984.83;919.85;;;;;;;16.00;69.54;100235.44;687817;28;92153;-64
2022/09/14 01:39:11;;;;;;;976.08;911.45;;;;;;;15.99;69.48;100243.81;686205;28;54531;-64
2022/09/14 01:39:33;;;;;;;975.63;911.03;;;;;;;15.99;69.58;100238.38;688175;28;1218;-64
2022/09/14 01:40:00;;;;;;;978.40;913.70;;;;;;;15.97;69.71;100238.59;685876;28;69414;-64
2022/09/14 01:40:24;;;;;;;975.22;910.63;;;;;;;15.98;69.68;100237.53;680882;28;138963;-64
2022/09/14 01:40:48;;;;;;;959.60;895.55;;;;;;;15.99;69.81;100239.19;681707;28;114903;-64
2022/09/14 01:41:11;;;;;;;961.67;897.65;;;;;;;15.98;69.72;100239.44;685327;28;69529;-64
2022/09/14 01:41:34;;;;;;;973.28;908.60;;;;;;;15.99;69.71;100243.81;685286;28;91290;-63
2022/09/14 01:41:56;;;;;;;971.88;907.35;;;;;;;16.00;69.76;100242.75;660828;28;46335;-64
2022/09/14 01:42:20;;;;;;;965.15;900.83;;;;;;;15.99;69.50;100235.66;685839;28;68207;-64
2022/09/14 01:42:42;;;;;;;971.17;906.47;;;;;;;15.98;69.58;100236.69;687117;28;70396;-64
2022/09/14 01:43:05;;;;;;;967.83;903.45;;;;;;;15.98;69.22;100242.16;689428;28;46216;-64
2022/09/14 01:43:32;;;;;;;981.60;916.67;;;;;;;15.97;69.37;100238.59;687469;28;92249;-64
2022/09/14 01:43:56;;;;;;;973.55;908.95;;;;;;;15.97;69.49;100240.47;685404;28;138116;-64
2022/09/14 01:44:21;;;;;;;969.92;905.50;;;;;;;15.95;69.44;100229.81;687167;28;114773;-64
2022/09/14 01:44:44;;;;;;;979.22;914.50;;;;;;;15.93;69.40;100229.22;688069;28;92347;-64
2022/09/14 01:45:09;;;;;;;973.42;908.92;;;;;;;15.93;69.27;100228.38;688136;28;90712;-64
2022/09/14 01:45:31;;;;;;;982.33;917.38;;;;;;;15.93;69.62;100233.84;687044;28;115105;-64
2022/09/14 01:45:59;;;;;;;984.03;919.03;;;;;;;15.91;69.59;100230.47;689755;28;22367;-64
2022/09/14 01:46:25;;;;;;;980.00;915.17;;;;;;;15.88;69.71;100228.22;686460;28;135665;-64
2022/09/14 01:46:50;;;;;;;987.10;922.10;;;;;;;15.90;69.67;100231.56;681133;28;115116;-64
2022/09/14 01:47:20;;;;;;;983.13;917.95;;;;;;;15.87;69.60;100229.28;680226;28;139667;-64
2022/09/14 01:47:46;;;;;;;974.75;910.00;;;;;;;15.85;69.50;100226.78;680780;28;136074;-64
2022/09/14 01:48:09;;;;;;;974.60;910.03;;;;;;;15.86;69.48;100236.59;681813;28;115073;-64
2022/09/14 01:48:35;;;;;;;986.30;921.15;;;;;;;15.84;69.76;100227.84;682132;28;92248;-64
2022/09/14 01:49:01;;;;;;;982.20;917.30;;;;;;;15.86;70.15;100236.59;681883;28;137956;-64
2022/09/14 01:49:26;;;;;;;975.17;910.60;;;;;;;15.87;69.63;100237.44;684453;28;115295;-64